createdAt,value
2023-03-17T00:00:51.444Z,6.10
2023-03-17T00:03:55.428Z,5.07
2023-03-17T00:07:03.549Z,6.18
2023-03-17T00:10:14.227Z,5.70
2023-03-17T00:13:17.705Z,5.78
2023-03-17T00:16:28.306Z,5.72
2023-03-17T00:19:35.422Z,5.57
2023-03-17T00:22:39.996Z,5.80
2023-03-17T00:25:45.470Z,6.03
2023-03-17T00:28:51.111Z,5.18
2023-03-17T00:31:57.871Z,5.17
2023-03-17T00:35:02.163Z,5.30
2023-03-17T00:38:07.103Z,6.40
2023-03-17T00:41:11.361Z,6.32
2023-03-17T00:44:14.738Z,5.97
2023-03-17T00:47:18.523Z,5.40
2023-03-17T00:50:28.286Z,5.37
2023-03-17T00:53:31.940Z,5.47
2023-03-17T00:56:37.625Z,6.28
2023-03-17T00:59:42.591Z,6.07
2023-03-17T01:02:47.912Z,5.33
2023-03-17T01:05:54.267Z,5.97
2023-03-17T01:08:57.790Z,7.03
2023-03-17T01:12:01.672Z,6.57
2023-03-17T01:15:05.113Z,6.53
2023-03-17T01:18:12.149Z,6.87
2023-03-17T01:21:15.818Z,6.53
2023-03-17T01:24:19.741Z,6.60
2023-03-17T01:27:24.294Z,7.03
2023-03-17T01:30:32.901Z,6.28
2023-03-17T01:33:36.619Z,5.37
2023-03-17T01:36:41.437Z,6.18
2023-03-17T01:39:45.620Z,6.25
2023-03-17T01:43:00.473Z,6.53
2023-03-17T01:46:32.725Z,6.40
2023-03-17T01:49:38.904Z,5.87
2023-03-17T01:52:42.238Z,6.15
2023-03-17T01:55:47.195Z,5.90
2023-03-17T01:58:53.649Z,6.00
2023-03-17T02:02:03.619Z,6.18
2023-03-17T02:05:11.577Z,6.97
2023-03-17T02:08:16.621Z,6.47
2023-03-17T02:11:21.215Z,7.03
2023-03-17T02:14:24.629Z,6.82
2023-03-17T02:17:29.173Z,6.35
2023-03-17T02:20:32.808Z,6.97
2023-03-17T02:23:36.781Z,7.77
2023-03-17T02:26:46.216Z,8.68
2023-03-17T02:29:49.740Z,7.25
2023-03-17T02:32:52.868Z,7.97
2023-03-17T02:35:58.393Z,7.95
2023-03-17T02:39:04.561Z,7.95
2023-03-17T02:42:09.472Z,7.40
2023-03-17T02:45:14.433Z,6.85
2023-03-17T02:48:18.132Z,7.70
2023-03-17T02:51:21.548Z,6.87
2023-03-17T02:54:24.924Z,7.50
2023-03-17T02:57:28.065Z,8.85
2023-03-17T03:00:32.115Z,7.72
2023-03-17T03:03:35.488Z,8.43
2023-03-17T03:06:39.963Z,7.72
2023-03-17T03:09:43.633Z,8.45
2023-03-17T03:12:47.246Z,6.85
2023-03-17T03:15:50.447Z,6.50
2023-03-17T03:18:53.959Z,6.20
2023-03-17T03:21:57.647Z,6.87
2023-03-17T03:25:01.334Z,6.60
2023-03-17T03:28:08.666Z,5.37
2023-03-17T03:31:12.115Z,6.40
2023-03-17T03:34:16.354Z,6.37
2023-03-17T03:37:19.788Z,6.40
2023-03-17T03:40:24.871Z,7.53
2023-03-17T03:43:28.350Z,7.10
2023-03-17T03:46:31.618Z,6.53
2023-03-17T03:49:35.012Z,6.32
2023-03-17T03:52:38.262Z,6.75
2023-03-17T03:55:42.145Z,7.20
2023-03-17T03:58:45.659Z,7.70
2023-03-17T04:01:49.280Z,6.82
2023-03-17T04:04:54.301Z,6.33
2023-03-17T04:07:57.536Z,7.37
2023-03-17T04:11:01.194Z,7.05
2023-03-17T04:14:06.526Z,6.25
2023-03-17T04:17:13.180Z,6.95
2023-03-17T04:20:17.206Z,6.78
2023-03-17T04:23:20.964Z,8.00
2023-03-17T04:26:24.394Z,6.77
2023-03-17T04:29:28.308Z,8.00
2023-03-17T04:32:32.339Z,7.62
2023-03-17T04:35:35.897Z,7.90
2023-03-17T04:38:43.912Z,7.55
2023-03-17T04:41:47.286Z,7.70
2023-03-17T04:44:51.565Z,7.62
2023-03-17T04:47:54.943Z,7.93
2023-03-17T04:50:58.854Z,6.62
2023-03-17T04:54:02.615Z,6.93
2023-03-17T04:57:05.657Z,6.83
2023-03-17T05:00:09.951Z,8.40
2023-03-17T05:03:25.987Z,8.07
2023-03-17T05:06:31.684Z,8.93
2023-03-17T05:09:35.119Z,8.63
2023-03-17T05:12:38.813Z,8.15
2023-03-17T05:15:48.073Z,8.77
2023-03-17T05:18:51.932Z,9.25
2023-03-17T05:21:55.295Z,8.95
2023-03-17T05:24:59.028Z,8.07
2023-03-17T05:28:03.717Z,7.63
2023-03-17T05:31:10.301Z,7.50
2023-03-17T05:34:13.991Z,7.95
2023-03-17T05:37:17.611Z,8.73
2023-03-17T05:40:23.361Z,7.80
2023-03-17T05:43:27.860Z,7.25
2023-03-17T05:46:31.111Z,7.78
2023-03-17T05:49:34.585Z,8.70
2023-03-17T05:52:38.179Z,8.35
2023-03-17T05:55:41.728Z,8.40
2023-03-17T05:58:44.939Z,8.83
2023-03-17T06:01:48.401Z,8.38
2023-03-17T06:04:52.312Z,8.63
2023-03-17T06:07:56.599Z,8.47
2023-03-17T06:11:00.110Z,8.98
2023-03-17T06:14:04.481Z,11.80
2023-03-17T06:17:09.641Z,11.25
2023-03-17T06:20:13.538Z,16.08
2023-03-17T06:23:17.505Z,20.55
2023-03-17T06:26:20.812Z,25.37
2023-03-17T06:29:25.155Z,19.07
2023-03-17T06:32:28.654Z,11.90
2023-03-17T06:35:33.004Z,11.30
2023-03-17T06:38:36.505Z,15.80
2023-03-17T06:41:40.213Z,15.95
2023-03-17T06:44:43.409Z,11.70
2023-03-17T06:47:46.876Z,10.27
2023-03-17T06:50:50.330Z,10.98
2023-03-17T06:53:54.265Z,11.05
2023-03-17T06:56:57.508Z,10.02
2023-03-17T07:00:00.968Z,9.70
2023-03-17T07:03:05.840Z,10.70
2023-03-17T07:06:09.603Z,9.48
2023-03-17T07:09:14.175Z,8.90
2023-03-17T07:12:18.076Z,10.43
2023-03-17T07:15:22.157Z,9.23
2023-03-17T07:18:26.139Z,10.23
2023-03-17T07:21:29.938Z,10.82
2023-03-17T07:24:34.147Z,10.00
2023-03-17T07:27:37.332Z,10.07
2023-03-17T07:30:43.934Z,11.00
2023-03-17T07:33:47.951Z,10.13
2023-03-17T07:36:51.623Z,9.77
2023-03-17T07:39:54.714Z,10.20
2023-03-17T07:42:58.725Z,9.90
2023-03-17T07:46:06.134Z,9.40
2023-03-17T07:49:10.172Z,8.45
2023-03-17T07:52:16.816Z,8.45
2023-03-17T07:55:20.440Z,8.43
2023-03-17T07:58:23.533Z,7.37
2023-03-17T08:01:28.185Z,6.97
2023-03-17T08:04:32.273Z,7.37
2023-03-17T08:07:37.594Z,7.43
2023-03-17T08:10:42.957Z,13.80
2023-03-17T08:13:48.156Z,5.90
2023-03-17T08:16:51.616Z,6.57
2023-03-17T08:19:55.526Z,5.50
2023-03-17T08:22:59.345Z,4.75
2023-03-17T08:26:04.510Z,4.75
2023-03-17T08:29:08.252Z,5.37
2023-03-17T08:32:15.477Z,5.90
2023-03-17T08:35:21.116Z,5.43
2023-03-17T08:38:24.217Z,6.00
2023-03-17T08:41:28.932Z,6.00
2023-03-17T08:44:32.195Z,5.27
2023-03-17T08:47:36.581Z,4.90
2023-03-17T08:50:39.764Z,5.03
2023-03-17T08:53:43.377Z,5.28
2023-03-17T08:56:46.882Z,4.97
2023-03-17T08:59:51.013Z,5.20
2023-03-17T09:02:55.662Z,5.20
2023-03-17T09:06:00.561Z,4.82
2023-03-17T09:09:03.932Z,5.68
2023-03-17T09:12:07.839Z,5.78
2023-03-17T09:15:12.291Z,5.73
2023-03-17T09:18:15.940Z,5.00
2023-03-17T09:21:22.449Z,4.75
2023-03-17T09:24:27.178Z,4.12
2023-03-17T09:27:30.573Z,3.58
2023-03-17T09:30:33.991Z,2.70
2023-03-17T09:33:39.254Z,2.53
2023-03-17T09:36:43.334Z,2.45
2023-03-17T09:39:49.146Z,2.30
2023-03-17T09:43:04.756Z,2.30
2023-03-17T09:46:38.379Z,2.20
2023-03-17T09:49:47.522Z,2.87
2023-03-17T09:52:56.964Z,2.78
2023-03-17T09:56:07.736Z,2.40
2023-03-17T09:59:30.854Z,2.20
2023-03-17T10:02:41.938Z,2.70
2023-03-17T10:05:45.907Z,2.43
2023-03-17T10:08:59.696Z,2.00
2023-03-17T10:12:15.426Z,2.10
2023-03-17T10:15:28.000Z,2.05
2023-03-17T10:18:40.871Z,2.13
2023-03-17T10:21:53.774Z,2.00
2023-03-17T10:25:03.875Z,2.58
2023-03-17T10:28:12.397Z,2.58
2023-03-17T10:31:23.055Z,3.67
2023-03-17T10:34:29.771Z,2.33
2023-03-17T10:37:36.788Z,2.37
2023-03-17T10:40:40.703Z,2.50
2023-03-17T10:43:48.443Z,2.53
2023-03-17T10:46:56.456Z,2.20
2023-03-17T10:50:23.252Z,2.57
2023-03-17T10:53:30.611Z,2.33
2023-03-17T10:56:38.237Z,2.30
2023-03-17T10:59:53.857Z,2.10
2023-03-17T11:02:59.908Z,2.20
2023-03-17T11:06:10.288Z,2.30
2023-03-17T11:09:18.585Z,2.30
2023-03-17T11:12:23.983Z,2.67
2023-03-17T11:15:53.295Z,2.42
2023-03-17T11:18:59.286Z,2.33
2023-03-17T11:22:16.812Z,2.70
2023-03-17T11:25:21.040Z,2.13
2023-03-17T11:28:36.104Z,2.35
2023-03-17T11:31:52.263Z,2.55
2023-03-17T11:35:29.655Z,2.30
2023-03-17T11:38:41.918Z,2.23
2023-03-17T11:41:57.218Z,2.23
2023-03-17T11:45:17.497Z,3.05
2023-03-17T11:48:35.830Z,2.33
2023-03-17T11:52:10.385Z,2.55
2023-03-17T11:55:23.492Z,2.53
2023-03-17T11:58:42.822Z,3.00
2023-03-17T12:01:58.270Z,3.15
2023-03-17T12:05:16.951Z,2.45
2023-03-17T12:08:42.594Z,2.10
2023-03-17T12:11:47.929Z,2.00
2023-03-17T12:14:54.132Z,2.30
2023-03-17T12:18:04.557Z,2.40
2023-03-17T12:21:28.459Z,2.67
2023-03-17T12:25:05.094Z,2.53
2023-03-17T12:28:16.249Z,2.70
2023-03-17T12:31:25.198Z,2.80
2023-03-17T12:34:42.171Z,2.40
2023-03-17T12:37:46.761Z,2.70
2023-03-17T12:41:08.097Z,3.20
2023-03-17T12:44:30.477Z,2.93
2023-03-17T12:47:36.491Z,2.73
2023-03-17T12:51:06.192Z,2.55
2023-03-17T12:54:18.634Z,2.85
2023-03-17T12:57:28.918Z,2.72
2023-03-17T13:00:34.294Z,2.93
2023-03-17T13:03:57.971Z,2.73
2023-03-17T13:07:16.161Z,2.97
2023-03-17T13:10:42.253Z,5.93
2023-03-17T13:13:54.619Z,2.85
2023-03-17T13:17:17.022Z,2.87
2023-03-17T13:20:21.199Z,3.47
2023-03-17T13:23:36.798Z,2.97
2023-03-17T13:27:01.053Z,3.08
2023-03-17T13:30:25.989Z,2.80
2023-03-17T13:33:33.008Z,2.80
2023-03-17T13:36:55.123Z,3.07
2023-03-17T13:40:17.904Z,3.30
2023-03-17T13:43:33.827Z,3.50
2023-03-17T13:46:37.727Z,2.78
2023-03-17T13:49:51.128Z,2.80
2023-03-17T13:53:02.017Z,2.83
2023-03-17T13:56:14.968Z,2.55
2023-03-17T13:59:19.993Z,2.85
2023-03-17T14:02:30.626Z,2.58
2023-03-17T14:05:38.163Z,2.90
2023-03-17T14:08:46.820Z,3.33
2023-03-17T14:11:51.330Z,3.45
2023-03-17T14:15:13.922Z,3.40
2023-03-17T14:18:30.868Z,3.00
2023-03-17T14:21:34.683Z,4.10
2023-03-17T14:24:40.060Z,3.40
2023-03-17T14:27:45.662Z,2.95
2023-03-17T14:30:55.650Z,3.30
2023-03-17T14:34:01.481Z,3.17
2023-03-17T14:37:05.369Z,4.40
2023-03-17T14:40:25.352Z,3.10
2023-03-17T14:43:29.079Z,3.40
2023-03-17T14:46:38.887Z,3.40
2023-03-17T14:49:45.065Z,2.72
2023-03-17T14:52:50.197Z,3.83
2023-03-17T14:55:53.772Z,3.43
2023-03-17T14:59:08.322Z,3.90
2023-03-17T15:02:23.286Z,3.78
2023-03-17T15:05:42.826Z,3.70
2023-03-17T15:08:47.467Z,3.53
2023-03-17T15:11:50.754Z,3.22
2023-03-17T15:15:01.014Z,3.00
2023-03-17T15:18:10.969Z,3.55
2023-03-17T15:21:48.243Z,3.15
2023-03-17T15:25:29.395Z,2.93
2023-03-17T15:28:33.356Z,3.58
2023-03-17T15:31:36.995Z,3.22
2023-03-17T15:34:41.165Z,2.87
2023-03-17T15:37:44.910Z,3.78
2023-03-17T15:40:49.206Z,3.87
2023-03-17T15:43:52.481Z,3.83
2023-03-17T15:46:56.777Z,3.25
2023-03-17T15:50:04.537Z,3.72
2023-03-17T15:53:11.958Z,3.70
2023-03-17T15:56:19.150Z,4.50
2023-03-17T15:59:23.032Z,3.95
2023-03-17T16:02:28.463Z,3.67
2023-03-17T16:05:33.906Z,3.40
2023-03-17T16:08:38.638Z,3.33
2023-03-17T16:11:42.139Z,3.50
2023-03-17T16:14:46.753Z,4.00
2023-03-17T16:17:53.704Z,3.53
2023-03-17T16:20:58.409Z,2.85
2023-03-17T16:24:02.150Z,4.47
2023-03-17T16:27:14.880Z,5.80
2023-03-17T16:30:33.429Z,7.05
2023-03-17T16:33:40.548Z,7.70
2023-03-17T16:36:44.161Z,7.68
2023-03-17T16:39:52.214Z,6.18
2023-03-17T16:42:55.717Z,9.02
2023-03-17T16:46:02.404Z,7.47
2023-03-17T16:49:06.499Z,6.87
2023-03-17T16:52:12.222Z,10.02
2023-03-17T16:55:16.878Z,9.32
2023-03-17T16:58:23.406Z,7.63
2023-03-17T17:01:29.351Z,6.47
2023-03-17T17:04:34.987Z,8.07
2023-03-17T17:07:38.685Z,7.80
2023-03-17T17:10:44.427Z,7.77
2023-03-17T17:13:49.890Z,8.25
2023-03-17T17:16:53.628Z,8.20
2023-03-17T17:19:57.154Z,13.73
2023-03-17T17:23:02.733Z,8.10
2023-03-17T17:26:07.280Z,10.60
2023-03-17T17:29:11.089Z,8.35
2023-03-17T17:32:18.473Z,9.77
2023-03-17T17:35:22.455Z,9.43
2023-03-17T17:38:29.291Z,9.38
2023-03-17T17:41:36.258Z,10.05
2023-03-17T17:44:42.999Z,11.48
2023-03-17T17:47:46.926Z,12.98
2023-03-17T17:50:52.975Z,11.32
2023-03-17T17:53:59.770Z,10.30
2023-03-17T17:57:05.584Z,12.02
2023-03-17T18:00:15.332Z,9.82
2023-03-17T18:03:25.563Z,10.50
2023-03-17T18:06:29.504Z,11.02
2023-03-17T18:09:34.436Z,11.48
2023-03-17T18:12:38.855Z,10.48
2023-03-17T18:15:44.010Z,10.50
2023-03-17T18:18:48.272Z,9.82
2023-03-17T18:21:55.879Z,10.10
2023-03-17T18:25:00.437Z,11.73
2023-03-17T18:28:05.775Z,10.82
2023-03-17T18:31:26.354Z,11.75
2023-03-17T18:34:44.113Z,10.77
2023-03-17T18:37:53.126Z,11.05
2023-03-17T18:41:05.019Z,10.93
2023-03-17T18:44:10.371Z,10.80
2023-03-17T18:47:17.190Z,11.12
2023-03-17T18:50:23.106Z,11.43
2023-03-17T18:53:28.378Z,11.95
2023-03-17T18:56:33.753Z,12.40
2023-03-17T18:59:39.178Z,11.55
2023-03-17T19:02:43.492Z,11.73
2023-03-17T19:05:48.500Z,11.00
2023-03-17T19:08:53.276Z,12.37
2023-03-17T19:12:00.554Z,12.27
2023-03-17T19:15:07.843Z,12.80
2023-03-17T19:18:17.085Z,12.20
2023-03-17T19:21:24.893Z,13.90
2023-03-17T19:24:32.792Z,15.00
2023-03-17T19:27:37.608Z,14.13
2023-03-17T19:30:45.565Z,13.98
2023-03-17T19:33:50.363Z,12.80
2023-03-17T19:36:56.380Z,11.87
2023-03-17T19:40:02.529Z,11.65
2023-03-17T19:43:07.160Z,10.98
2023-03-17T19:46:12.578Z,11.75
2023-03-17T19:49:21.715Z,11.18
2023-03-17T19:52:26.904Z,10.95
2023-03-17T19:55:33.234Z,13.85
2023-03-17T19:58:38.646Z,11.93
2023-03-17T20:01:43.932Z,21.10
2023-03-17T20:04:50.528Z,20.30
2023-03-17T20:07:59.475Z,15.87
2023-03-17T20:11:06.961Z,18.37
2023-03-17T20:14:12.707Z,20.10
2023-03-17T20:17:17.917Z,20.08
2023-03-17T20:20:24.172Z,17.25
2023-03-17T20:23:32.214Z,14.43
2023-03-17T20:26:36.605Z,16.42
2023-03-17T20:29:43.915Z,14.90
2023-03-17T20:32:48.953Z,15.27
2023-03-17T20:35:54.962Z,15.85
2023-03-17T20:38:59.487Z,14.60
2023-03-17T20:42:10.257Z,15.85
2023-03-17T20:45:14.850Z,17.02
2023-03-17T20:48:20.477Z,16.60
2023-03-17T20:51:27.257Z,26.55
2023-03-17T20:54:34.094Z,19.60
2023-03-17T20:57:38.905Z,18.23
2023-03-17T21:00:45.263Z,18.00
2023-03-17T21:03:49.995Z,18.58
2023-03-17T21:06:54.636Z,17.90
2023-03-17T21:10:01.286Z,19.93
2023-03-17T21:13:05.948Z,18.20
2023-03-17T21:16:16.768Z,16.85
2023-03-17T21:19:20.642Z,15.93
2023-03-17T21:22:26.019Z,17.48
2023-03-17T21:25:30.482Z,19.10
2023-03-17T21:28:34.310Z,18.00
2023-03-17T21:31:39.164Z,16.87
2023-03-17T21:34:44.263Z,16.27
2023-03-17T21:37:48.705Z,17.75
2023-03-17T21:40:53.313Z,19.70
2023-03-17T21:43:58.238Z,17.87
2023-03-17T21:47:03.454Z,15.52
2023-03-17T21:50:07.871Z,16.87
2023-03-17T21:53:16.042Z,15.43
2023-03-17T21:56:20.666Z,44.70
2023-03-17T21:59:23.860Z,38.85
2023-03-17T22:02:28.268Z,36.47
2023-03-17T22:05:31.659Z,33.72
2023-03-17T22:08:35.483Z,28.45
2023-03-17T22:11:39.289Z,24.47
2023-03-17T22:14:42.368Z,27.45
2023-03-17T22:17:45.867Z,26.15
2023-03-17T22:20:53.749Z,25.02
2023-03-17T22:23:58.450Z,24.67
2023-03-17T22:27:01.730Z,25.77
2023-03-17T22:30:06.623Z,20.42
2023-03-17T22:33:10.434Z,15.10
2023-03-17T22:36:14.115Z,13.57
2023-03-17T22:39:17.599Z,13.93
2023-03-17T22:42:21.246Z,13.67
2023-03-17T22:45:25.580Z,13.00
2023-03-17T22:48:28.921Z,14.48
2023-03-17T22:51:32.927Z,18.35
2023-03-17T22:54:36.654Z,20.20
2023-03-17T22:57:40.018Z,19.23
2023-03-17T23:00:43.596Z,19.90
2023-03-17T23:03:47.247Z,20.90
2023-03-17T23:06:52.533Z,20.80
2023-03-17T23:09:56.060Z,22.10
2023-03-17T23:12:59.778Z,20.83
2023-03-17T23:16:04.819Z,20.08
2023-03-17T23:19:09.832Z,18.65
2023-03-17T23:22:13.063Z,17.73
2023-03-17T23:25:18.049Z,19.62
2023-03-17T23:28:22.464Z,19.73
2023-03-17T23:31:28.109Z,20.98
2023-03-17T23:34:31.282Z,18.23
2023-03-17T23:37:35.480Z,18.70
2023-03-17T23:40:39.829Z,19.25
2023-03-17T23:43:44.124Z,17.30
2023-03-17T23:46:47.263Z,15.93
2023-03-17T23:49:50.774Z,15.82
2023-03-17T23:52:54.226Z,15.75
2023-03-17T23:55:58.021Z,15.35
2023-03-17T23:59:01.970Z,15.45
